Startpagina
METAR-TAF:

METAR-TAF

Vliegvelden :

Pinedale, Wyoming, Verenigde Staten

breedte: 42-47-43N, lengte: 109-48-25W, hoogte: 2160 m

Actueel weer

Dit bericht is 14 minuten geleden gemaakt, om 13:15 UTC
Wind 7 kt uit het westnoordwesten
Temperatuur -1°C
Vochtigheid 86%
Druk 1012 hPa
Zicht: 16.1 km
Onbewolkt

METAR: KPNA 181315Z AUTO 30007KT 10SM CLR M01/M03 A2987 RMK AO2

Tijdstip: 07:29 (13:29 UTC)

Verwachting

Dit bericht is 1 uur en het 53 minuten geleden gemaakt, om 11:36 UTC
Verwachting geldig van 18 om 12 UTC tot 19 om 12 UTC
Wind 8 kt uit het westnoordwesten
Zicht: 10 km
Gebroken wolken op 5000 ft
Van 18 om 1800 UTC
Wind 14 kt uit het westnoordwesten met uitschieters tot 24 kt
Zicht: 10 km
Verspreide wolken op 3000 ft
Gebroken wolken op 5000 ft
Van 19 om 0100 UTC
Wind 8 kt uit het westnoordwesten
Zicht: 10 km
Verspreide wolken op 3000 ft
Gebroken wolken op 5000 ft

TAF: KPNA 181136Z 1812/1912 30008KT P6SM BKN050 FM181800 30014G24KT P6SM SCT030 BKN050 FM190100 30008KT P6SM SCT030 BKN050 AMD LTD TO CLD VIS AND WIND

Waarnemingen en weersverwachtingen van meer dan 4000 vliegvelden (METAR en TAF).

De beschikbare stations zijn de gele en rode punten op de kaart.

Ga met uw muis naar het station om de naam te zien.

Klik dan om waarnemingen en weersverwachtingen te zien.

kaart wijzigen: klik op de groene knoppen met een zwart kruis om in te zoomen, op de groene knop met een streepje om uit te zoomen of op de groene pijlen voor aangrenzende kaarten.


METAR-TAF: